createdAt,value
2022-09-12T00:01:21.551Z,10.25
2022-09-12T00:03:48.313Z,10.27
2022-09-12T00:06:23.223Z,9.93
2022-09-12T00:08:50.846Z,12.27
2022-09-12T00:11:17.613Z,11.43
2022-09-12T00:13:44.342Z,10.38
2022-09-12T00:16:16.816Z,9.82
2022-09-12T00:18:45.157Z,9.65
2022-09-12T00:21:11.627Z,11.10
2022-09-12T00:23:38.021Z,10.35
2022-09-12T00:26:06.614Z,12.40
2022-09-12T00:28:38.410Z,11.20
2022-09-12T00:31:07.342Z,11.27
2022-09-12T00:33:34.870Z,10.57
2022-09-12T00:36:05.425Z,11.77
2022-09-12T00:38:32.192Z,9.70
2022-09-12T00:40:58.566Z,10.32
2022-09-12T00:43:27.786Z,11.35
2022-09-12T00:45:54.674Z,15.30
2022-09-12T00:48:29.165Z,11.27
2022-09-12T00:50:55.556Z,10.35
2022-09-12T00:53:21.998Z,12.60
2022-09-12T00:55:51.816Z,12.07
2022-09-12T00:58:37.799Z,13.45
2022-09-12T01:01:04.366Z,11.65
2022-09-12T01:03:31.137Z,10.82
2022-09-12T01:06:13.371Z,9.93
2022-09-12T01:08:41.195Z,11.43
2022-09-12T01:11:11.188Z,12.23
2022-09-12T01:13:37.825Z,14.77
2022-09-12T01:16:06.065Z,11.70
2022-09-12T01:19:05.990Z,11.95
2022-09-12T01:22:06.149Z,10.75
2022-09-12T01:24:54.395Z,12.30
2022-09-12T01:27:46.960Z,14.40
2022-09-12T01:30:22.186Z,13.00
2022-09-12T01:33:00.749Z,14.57
2022-09-12T01:35:40.862Z,12.65
2022-09-12T01:38:13.974Z,13.02
2022-09-12T01:40:51.894Z,12.90
2022-09-12T01:43:26.760Z,12.57
2022-09-12T01:45:58.299Z,13.30
2022-09-12T01:48:31.181Z,12.95
2022-09-12T01:51:09.378Z,13.73
2022-09-12T01:53:42.268Z,13.93
2022-09-12T01:56:22.669Z,16.58
2022-09-12T01:59:03.970Z,14.68
2022-09-12T02:01:39.384Z,16.20
2022-09-12T02:04:14.938Z,15.73
2022-09-12T02:06:54.297Z,19.58
2022-09-12T02:09:26.346Z,23.17
2022-09-12T02:11:58.777Z,19.80
2022-09-12T02:14:32.451Z,20.55
2022-09-12T02:17:00.392Z,22.35
2022-09-12T02:19:34.269Z,19.88
2022-09-12T02:22:04.337Z,20.52
2022-09-12T02:24:39.340Z,21.30
2022-09-12T02:27:23.677Z,22.05
2022-09-12T02:29:50.562Z,20.30
2022-09-12T02:32:38.105Z,21.30
2022-09-12T02:35:46.477Z,20.23
2022-09-12T02:38:29.832Z,18.40
2022-09-12T02:40:56.688Z,20.08
2022-09-12T02:43:23.135Z,20.42
2022-09-12T02:45:49.739Z,19.45
2022-09-12T02:48:26.230Z,20.13
2022-09-12T02:50:53.932Z,21.45
2022-09-12T02:53:21.078Z,20.65
2022-09-12T02:55:47.982Z,19.95
2022-09-12T02:58:22.606Z,21.83
2022-09-12T03:01:16.543Z,19.33
2022-09-12T03:04:04.907Z,20.15
2022-09-12T03:06:51.554Z,20.92
2022-09-12T03:09:22.435Z,21.10
2022-09-12T03:12:09.892Z,25.85
2022-09-12T03:14:52.252Z,18.48
2022-09-12T03:17:43.807Z,20.42
2022-09-12T03:20:16.901Z,21.10
2022-09-12T03:22:54.316Z,23.92
2022-09-12T03:25:28.271Z,21.05
2022-09-12T03:28:16.205Z,22.13
2022-09-12T03:30:48.512Z,20.92
2022-09-12T03:33:17.823Z,21.77
2022-09-12T03:35:44.649Z,20.33
2022-09-12T03:38:11.090Z,19.73
2022-09-12T03:40:38.337Z,22.55
2022-09-12T03:43:06.478Z,22.50
2022-09-12T03:45:32.905Z,23.42
2022-09-12T03:47:59.847Z,24.38
2022-09-12T03:50:26.291Z,23.20
2022-09-12T03:52:52.683Z,18.42
2022-09-12T03:55:19.382Z,21.55
2022-09-12T03:57:46.045Z,19.48
2022-09-12T04:00:17.699Z,20.65
2022-09-12T04:02:46.083Z,20.55
2022-09-12T04:05:12.482Z,20.63
2022-09-12T04:07:38.847Z,20.88
2022-09-12T04:10:05.814Z,23.40
2022-09-12T04:12:32.227Z,23.38
2022-09-12T04:14:58.598Z,22.15
2022-09-12T04:17:25.026Z,20.25
2022-09-12T04:19:51.394Z,22.48
2022-09-12T04:22:17.786Z,21.45
2022-09-12T04:24:44.187Z,25.73
2022-09-12T04:27:10.593Z,19.98
2022-09-12T04:29:36.959Z,23.00
2022-09-12T04:32:04.173Z,23.15
2022-09-12T04:34:32.053Z,23.02
2022-09-12T04:36:58.464Z,19.65
2022-09-12T04:39:25.000Z,19.08
2022-09-12T04:41:51.950Z,22.67
2022-09-12T04:44:18.391Z,21.67
2022-09-12T04:46:46.969Z,23.13
2022-09-12T04:49:16.215Z,24.88
2022-09-12T04:51:43.118Z,23.52
2022-09-12T04:54:18.417Z,23.23
2022-09-12T04:56:47.382Z,21.00
2022-09-12T04:59:16.370Z,22.42
2022-09-12T05:01:43.297Z,21.63
2022-09-12T05:04:11.110Z,24.80
2022-09-12T05:06:38.591Z,25.48
2022-09-12T05:09:07.014Z,27.63
2022-09-12T05:12:02.787Z,23.27
2022-09-12T05:14:22.689Z,23.80
2022-09-12T05:16:49.962Z,22.38
2022-09-12T05:19:16.772Z,21.15
2022-09-12T05:21:43.149Z,23.30
2022-09-12T05:24:10.547Z,22.20
2022-09-12T05:26:36.943Z,21.80
2022-09-12T05:29:04.252Z,21.77
2022-09-12T05:31:30.658Z,19.95
2022-09-12T05:33:57.634Z,22.40
2022-09-12T05:36:26.855Z,22.38
2022-09-12T05:38:54.080Z,20.63
2022-09-12T05:41:25.505Z,22.15
2022-09-12T05:43:54.387Z,21.27
2022-09-12T05:46:22.919Z,22.98
2022-09-12T05:48:55.053Z,23.65
2022-09-12T05:51:26.699Z,19.83
2022-09-12T05:53:55.816Z,20.60
2022-09-12T05:56:24.624Z,17.88
2022-09-12T05:58:59.686Z,23.13
2022-09-12T06:01:27.581Z,23.37
2022-09-12T06:03:57.703Z,21.73
2022-09-12T06:06:29.094Z,21.17
2022-09-12T06:09:01.278Z,20.42
2022-09-12T06:11:29.731Z,21.52
2022-09-12T06:13:58.115Z,20.70
2022-09-12T06:16:27.512Z,17.88
2022-09-12T06:18:59.569Z,19.17
2022-09-12T06:21:26.911Z,21.25
2022-09-12T06:23:58.613Z,18.63
2022-09-12T06:26:26.120Z,19.48
2022-09-12T06:28:54.274Z,19.58
2022-09-12T06:31:25.084Z,17.00
2022-09-12T06:33:53.346Z,17.50
2022-09-12T06:36:25.858Z,18.08
2022-09-12T06:39:04.199Z,16.85
2022-09-12T06:41:32.146Z,18.35
2022-09-12T06:43:59.875Z,16.98
2022-09-12T06:46:27.562Z,17.58
2022-09-12T06:48:56.413Z,15.40
2022-09-12T06:51:23.249Z,15.93
2022-09-12T06:53:57.411Z,15.52
2022-09-12T06:56:27.035Z,14.30
2022-09-12T06:58:56.342Z,17.17
2022-09-12T07:01:27.765Z,17.67
2022-09-12T07:03:57.738Z,13.93
2022-09-12T07:06:31.480Z,15.02
2022-09-12T07:09:02.857Z,15.07
2022-09-12T07:11:34.833Z,14.93
2022-09-12T07:14:14.033Z,13.85
2022-09-12T07:16:40.839Z,12.80
2022-09-12T07:19:08.676Z,13.20
2022-09-12T07:21:39.532Z,14.40
2022-09-12T07:24:06.630Z,14.10
2022-09-12T07:26:33.081Z,13.32
2022-09-12T07:29:13.241Z,11.90
2022-09-12T07:31:45.830Z,11.45
2022-09-12T07:34:12.212Z,10.15
2022-09-12T07:36:39.153Z,13.10
2022-09-12T07:39:05.970Z,12.73
2022-09-12T07:41:33.950Z,11.45
2022-09-12T07:44:01.933Z,11.70
2022-09-12T07:46:29.824Z,12.80
2022-09-12T07:48:58.702Z,11.77
2022-09-12T07:51:26.603Z,11.68
2022-09-12T07:53:53.069Z,13.02
2022-09-12T07:56:22.046Z,10.20
2022-09-12T07:58:50.479Z,11.85
2022-09-12T08:01:19.442Z,10.52
2022-09-12T08:03:49.082Z,10.90
2022-09-12T08:06:20.277Z,11.15
2022-09-12T08:08:47.859Z,9.77
2022-09-12T08:11:16.311Z,9.52
2022-09-12T08:13:43.387Z,10.45
2022-09-12T08:16:15.085Z,9.57
2022-09-12T08:18:41.613Z,9.85
2022-09-12T08:21:14.354Z,10.27
2022-09-12T08:23:44.511Z,11.48
2022-09-12T08:26:12.234Z,10.27
2022-09-12T08:28:42.010Z,13.23
2022-09-12T08:31:11.171Z,10.80
2022-09-12T08:33:38.175Z,8.48
2022-09-12T08:36:06.445Z,8.48
2022-09-12T08:38:34.324Z,10.80
2022-09-12T08:41:11.651Z,10.23
2022-09-12T08:43:46.002Z,11.85
2022-09-12T08:46:19.444Z,8.90
2022-09-12T08:48:50.127Z,9.38
2022-09-12T08:51:20.448Z,8.88
2022-09-12T08:53:51.549Z,8.90
2022-09-12T08:56:18.025Z,9.50
2022-09-12T08:58:46.210Z,8.18
2022-09-12T09:01:33.138Z,9.00
2022-09-12T09:04:14.862Z,9.45
2022-09-12T09:06:52.189Z,10.05
2022-09-12T09:09:42.903Z,8.35
2022-09-12T09:12:46.075Z,8.18
2022-09-12T09:15:33.243Z,9.10
2022-09-12T09:18:10.832Z,10.02
2022-09-12T09:20:57.368Z,8.25
2022-09-12T09:23:35.887Z,9.77
2022-09-12T09:26:17.857Z,10.05
2022-09-12T09:28:52.245Z,8.23
2022-09-12T09:31:23.611Z,9.13
2022-09-12T09:33:52.561Z,14.98
2022-09-12T09:36:42.032Z,9.27
2022-09-12T09:39:23.558Z,8.23
2022-09-12T09:42:07.706Z,9.45
2022-09-12T09:44:34.249Z,11.10
2022-09-12T09:47:01.866Z,8.52
2022-09-12T09:49:32.040Z,8.57
2022-09-12T09:52:00.926Z,8.45
2022-09-12T09:54:37.679Z,9.05
2022-09-12T09:57:05.099Z,9.20
2022-09-12T09:59:33.692Z,10.23
2022-09-12T10:02:12.120Z,10.68
2022-09-12T10:04:54.550Z,9.80
2022-09-12T10:07:22.330Z,8.30
2022-09-12T10:10:06.853Z,9.95
2022-09-12T10:12:33.589Z,9.73
2022-09-12T10:15:03.185Z,9.90
2022-09-12T10:17:39.860Z,11.80
2022-09-12T10:20:37.961Z,11.07
2022-09-12T10:23:21.371Z,11.68
2022-09-12T10:26:05.148Z,9.60
2022-09-12T10:28:44.661Z,11.68
2022-09-12T10:31:16.591Z,9.23
2022-09-12T10:33:53.199Z,8.88
2022-09-12T10:36:20.948Z,9.60
2022-09-12T10:39:00.659Z,10.75
2022-09-12T10:41:37.009Z,9.85
2022-09-12T10:44:09.838Z,10.98
2022-09-12T10:46:36.251Z,9.60
2022-09-12T10:49:14.817Z,9.52
2022-09-12T10:51:41.375Z,12.07
2022-09-12T10:54:11.579Z,10.73
2022-09-12T10:56:49.654Z,8.48
2022-09-12T10:59:24.296Z,9.98
2022-09-12T11:01:59.922Z,12.27
2022-09-12T11:04:47.548Z,11.93
2022-09-12T11:07:26.057Z,10.07
2022-09-12T11:10:14.549Z,10.65
2022-09-12T11:12:43.720Z,11.32
2022-09-12T11:15:48.527Z,9.20
2022-09-12T11:18:42.286Z,7.32
2022-09-12T11:22:09.270Z,8.23
2022-09-12T11:24:59.830Z,7.60
2022-09-12T11:41:38.283Z,6.85
2022-09-12T11:44:29.391Z,8.20
2022-09-12T11:46:55.786Z,12.00
2022-09-12T11:49:43.719Z,9.75
2022-09-12T11:52:19.936Z,9.32
2022-09-12T11:55:03.732Z,9.05
2022-09-12T11:57:44.102Z,7.07
2022-09-12T12:00:26.041Z,8.15
2022-09-12T12:03:13.874Z,7.15
2022-09-12T12:05:52.114Z,9.82
2022-09-12T12:08:20.922Z,27.42
2022-09-12T12:10:59.738Z,9.80
2022-09-12T12:13:45.111Z,13.75
2022-09-12T12:16:23.031Z,11.07
2022-09-12T12:18:56.135Z,7.30
2022-09-12T12:21:41.358Z,8.45
2022-09-12T12:24:07.736Z,7.78
2022-09-12T12:26:40.493Z,7.90
2022-09-12T12:29:23.458Z,9.40
2022-09-12T12:31:59.127Z,8.13
2022-09-12T12:34:32.972Z,5.55
2022-09-12T12:37:20.148Z,5.60
2022-09-12T12:39:50.326Z,5.55
2022-09-12T12:42:34.974Z,4.93
2022-09-12T12:45:08.232Z,6.57
2022-09-12T12:47:37.647Z,4.63
2022-09-12T12:50:10.069Z,4.45
2022-09-12T12:52:57.422Z,3.90
2022-09-12T12:55:27.519Z,5.65
2022-09-12T12:57:56.810Z,5.55
2022-09-12T13:00:29.970Z,4.97
2022-09-12T13:03:02.553Z,3.88
2022-09-12T13:05:37.991Z,4.47
2022-09-12T13:08:10.843Z,6.53
2022-09-12T13:10:38.625Z,3.53
2022-09-12T13:13:08.693Z,11.05
2022-09-12T13:15:38.248Z,4.65
2022-09-12T13:18:13.240Z,3.78
2022-09-12T13:21:13.327Z,4.33
2022-09-12T13:23:40.658Z,2.92
2022-09-12T13:26:12.748Z,2.90
2022-09-12T13:28:39.403Z,3.80
2022-09-12T13:31:17.533Z,2.65
2022-09-12T13:33:59.995Z,2.03
2022-09-12T13:36:45.235Z,2.70
2022-09-12T13:39:40.441Z,2.72
2022-09-12T13:42:26.719Z,3.13
2022-09-12T13:47:29.382Z,2.85
2022-09-12T13:49:57.151Z,2.88
2022-09-12T13:52:28.060Z,4.65
2022-09-12T13:54:58.384Z,2.80
2022-09-12T13:57:39.043Z,3.90
2022-09-12T14:00:12.878Z,4.15
2022-09-12T14:02:40.041Z,3.63
2022-09-12T14:05:26.862Z,3.03
2022-09-12T14:08:01.386Z,3.13
2022-09-12T14:10:28.223Z,3.65
2022-09-12T14:12:57.187Z,3.00
2022-09-12T14:15:27.193Z,3.33
2022-09-12T14:18:01.127Z,3.33
2022-09-12T14:20:33.199Z,3.33
2022-09-12T14:23:02.469Z,5.32
2022-09-12T14:25:41.388Z,6.30
2022-09-12T14:28:13.211Z,8.20
2022-09-12T14:30:39.636Z,6.63
2022-09-12T14:33:11.895Z,5.65
2022-09-12T14:35:43.475Z,4.75
2022-09-12T14:38:16.020Z,18.20
2022-09-12T14:40:48.619Z,4.28
2022-09-12T14:43:28.701Z,4.40
2022-09-12T14:45:59.671Z,5.75
2022-09-12T14:48:29.803Z,3.80
2022-09-12T14:50:56.485Z,3.60
2022-09-12T14:53:33.477Z,15.80
2022-09-12T14:56:08.860Z,6.72
2022-09-12T14:58:36.163Z,3.95
2022-09-12T15:01:05.532Z,4.22
2022-09-12T15:03:33.651Z,2.53
2022-09-12T15:06:03.060Z,3.13
2022-09-12T15:08:30.653Z,3.80
2022-09-12T15:10:58.019Z,8.95
2022-09-12T15:13:26.412Z,2.70
2022-09-12T15:16:00.293Z,2.95
2022-09-12T15:18:29.055Z,2.10
2022-09-12T15:21:01.686Z,2.72
2022-09-12T15:23:55.377Z,2.22
2022-09-12T15:26:23.922Z,2.95
2022-09-12T15:28:51.181Z,2.53
2022-09-12T15:31:29.293Z,2.80
2022-09-12T15:33:57.253Z,2.00
2022-09-12T15:36:24.818Z,3.30
2022-09-12T15:38:52.875Z,4.35
2022-09-12T15:41:22.290Z,4.68
2022-09-12T15:43:49.086Z,2.78
2022-09-12T15:46:17.307Z,2.78
2022-09-12T15:48:43.883Z,2.58
2022-09-12T15:51:15.780Z,2.30
2022-09-12T15:53:43.655Z,2.22
2022-09-12T15:56:10.321Z,2.28
2022-09-12T15:58:49.817Z,2.10
2022-09-12T16:01:24.083Z,3.63
2022-09-12T16:03:50.528Z,2.25
2022-09-12T16:06:17.011Z,2.03
2022-09-12T16:08:43.476Z,3.38
2022-09-12T16:11:21.838Z,2.25
2022-09-12T16:13:48.830Z,2.35
2022-09-12T16:16:15.308Z,1.88
2022-09-12T16:18:42.267Z,2.25
2022-09-12T16:21:12.782Z,2.00
2022-09-12T16:23:47.323Z,2.05
2022-09-12T16:26:14.346Z,2.08
2022-09-12T16:28:41.029Z,2.08
2022-09-12T16:31:09.240Z,2.08
2022-09-12T16:33:37.547Z,2.13
2022-09-12T16:36:12.086Z,2.70
2022-09-12T16:38:46.556Z,1.70
2022-09-12T16:41:14.170Z,2.67
2022-09-12T16:43:42.471Z,2.47
2022-09-12T16:46:15.953Z,2.40
2022-09-12T16:48:49.317Z,2.17
2022-09-12T16:51:20.511Z,2.88
2022-09-12T16:53:47.249Z,2.03
2022-09-12T16:56:13.877Z,2.00
2022-09-12T16:58:42.168Z,4.55
2022-09-12T17:01:11.405Z,3.53
2022-09-12T17:03:38.292Z,2.25
2022-09-12T17:06:10.181Z,1.85
2022-09-12T17:08:41.470Z,2.95
2022-09-12T17:11:11.233Z,2.63
2022-09-12T17:14:00.565Z,2.53
2022-09-12T17:16:26.470Z,2.25
2022-09-12T17:18:53.390Z,2.15
2022-09-12T17:21:21.179Z,4.53
2022-09-12T17:23:48.047Z,4.50
2022-09-12T17:26:15.028Z,3.20
2022-09-12T17:28:41.895Z,2.72
2022-09-12T17:31:11.505Z,2.97
2022-09-12T17:33:39.656Z,4.55
2022-09-12T17:36:12.062Z,3.97
2022-09-12T17:38:42.611Z,2.28
2022-09-12T17:41:15.389Z,2.45
2022-09-12T17:43:42.429Z,4.03
2022-09-12T17:46:08.870Z,2.25
2022-09-12T17:48:35.621Z,3.53
2022-09-12T17:51:14.724Z,3.03
2022-09-12T17:53:42.273Z,3.97
2022-09-12T17:56:10.127Z,6.72
2022-09-12T17:58:36.995Z,3.03
2022-09-12T18:01:25.217Z,4.10
2022-09-12T18:03:56.003Z,4.90
2022-09-12T18:06:23.666Z,3.17
2022-09-12T18:08:50.837Z,3.53
2022-09-12T18:11:17.638Z,3.80
2022-09-12T18:13:44.394Z,4.45
2022-09-12T18:16:12.835Z,4.53
2022-09-12T18:18:39.580Z,3.80
2022-09-12T18:21:07.938Z,4.53
2022-09-12T18:23:35.088Z,5.07
2022-09-12T18:26:07.795Z,5.07
2022-09-12T18:28:39.954Z,3.83
2022-09-12T18:31:13.899Z,3.55
2022-09-12T18:33:41.173Z,4.35
2022-09-12T18:38:41.880Z,3.30
2022-09-12T18:41:10.869Z,4.32
2022-09-12T18:43:38.018Z,2.47
2022-09-12T18:46:06.105Z,7.55
2022-09-12T18:48:33.337Z,4.53
2022-09-12T18:51:09.789Z,2.88
2022-09-12T18:53:36.892Z,3.45
2022-09-12T18:56:08.570Z,3.72
2022-09-12T18:58:36.223Z,4.78
2022-09-12T19:01:29.598Z,10.10
2022-09-12T19:03:56.763Z,4.85
2022-09-12T19:06:28.775Z,4.90
2022-09-12T19:08:57.082Z,6.50
2022-09-12T19:11:24.369Z,5.20
2022-09-12T19:13:52.384Z,4.60
2022-09-12T19:16:21.779Z,7.25
2022-09-12T19:18:49.666Z,6.65
2022-09-12T19:21:24.847Z,6.38
2022-09-12T19:23:53.423Z,5.05
2022-09-12T19:26:21.375Z,7.10
2022-09-12T19:28:48.456Z,5.53
2022-09-12T19:31:18.862Z,4.63
2022-09-12T19:33:45.792Z,5.40
2022-09-12T19:36:34.027Z,4.63
2022-09-12T19:39:01.137Z,6.20
2022-09-12T19:41:27.633Z,6.65
2022-09-12T19:43:55.341Z,4.82
2022-09-12T19:46:23.847Z,6.55
2022-09-12T19:48:52.169Z,4.47
2022-09-12T19:51:19.863Z,7.63
2022-09-12T19:53:46.781Z,4.15
2022-09-12T19:56:14.413Z,4.70
2022-09-12T19:58:43.208Z,4.32
2022-09-12T20:01:12.634Z,7.15
2022-09-12T20:03:39.659Z,4.35
2022-09-12T20:06:09.332Z,4.60
2022-09-12T20:08:37.755Z,4.80
2022-09-12T20:11:04.284Z,4.90
2022-09-12T20:13:30.790Z,7.47
2022-09-12T20:16:05.768Z,5.63
2022-09-12T20:18:32.215Z,5.73
2022-09-12T20:20:58.637Z,8.27
2022-09-12T20:23:25.154Z,5.18
2022-09-12T20:25:51.584Z,7.50
2022-09-12T20:28:17.990Z,6.78
2022-09-12T20:30:44.441Z,4.95
2022-09-12T20:33:10.861Z,5.15
2022-09-12T20:35:37.311Z,6.88
2022-09-12T20:38:03.768Z,5.25
2022-09-12T20:40:30.255Z,6.30
2022-09-12T20:42:56.655Z,6.25
2022-09-12T20:45:23.087Z,6.68
2022-09-12T20:47:49.639Z,5.40
2022-09-12T20:50:16.153Z,4.75
2022-09-12T20:52:42.557Z,4.35
2022-09-12T20:55:09.887Z,5.25
2022-09-12T20:57:36.326Z,5.38
2022-09-12T21:00:03.226Z,8.32
2022-09-12T21:02:29.835Z,8.18
2022-09-12T21:04:57.346Z,5.13
2022-09-12T21:07:23.775Z,6.95
2022-09-12T21:09:50.395Z,6.93
2022-09-12T21:12:16.789Z,5.45
2022-09-12T21:14:43.214Z,5.22
2022-09-12T21:17:09.695Z,6.65
2022-09-12T21:19:36.264Z,5.25
2022-09-12T21:22:02.899Z,7.05
2022-09-12T21:24:29.637Z,6.38
2022-09-12T21:26:57.413Z,5.82
2022-09-12T21:29:25.773Z,6.30
2022-09-12T21:31:52.207Z,5.47
2022-09-12T21:34:18.664Z,6.00
2022-09-12T21:36:45.095Z,5.30
2022-09-12T21:39:11.495Z,5.35
2022-09-12T21:41:37.982Z,5.65
2022-09-12T21:44:04.419Z,6.28
2022-09-12T21:46:30.876Z,10.18
2022-09-12T21:48:57.541Z,8.93
2022-09-12T21:51:23.986Z,5.63
2022-09-12T21:53:50.417Z,7.40
2022-09-12T21:56:16.946Z,7.13
2022-09-12T21:58:43.415Z,9.90
2022-09-12T22:01:12.362Z,9.45
2022-09-12T22:03:39.015Z,6.15
2022-09-12T22:06:07.225Z,6.25
2022-09-12T22:08:37.476Z,6.45
2022-09-12T22:11:09.490Z,6.90
2022-09-12T22:13:42.798Z,5.82
2022-09-12T22:16:10.183Z,5.93
2022-09-12T22:18:38.053Z,5.68
2022-09-12T22:21:07.504Z,6.00
2022-09-12T22:23:52.612Z,8.35
2022-09-12T22:26:19.319Z,6.90
2022-09-12T22:28:47.621Z,9.35
2022-09-12T22:31:14.857Z,7.13
2022-09-12T22:33:41.404Z,7.40
2022-09-12T22:36:09.360Z,8.38
2022-09-12T22:38:36.370Z,6.57
2022-09-12T22:41:05.089Z,8.52
2022-09-12T22:43:33.447Z,6.55
2022-09-12T22:45:59.972Z,7.00
2022-09-12T22:48:26.967Z,7.40
2022-09-12T22:50:53.442Z,8.68
2022-09-12T22:53:19.870Z,5.82
2022-09-12T22:55:46.499Z,7.30
2022-09-12T22:58:12.883Z,7.03
2022-09-12T23:00:39.328Z,6.65
2022-09-12T23:03:05.796Z,5.68
2022-09-12T23:05:32.309Z,6.45
2022-09-12T23:07:58.974Z,5.97
2022-09-12T23:10:27.057Z,6.97
2022-09-12T23:12:54.868Z,5.38
2022-09-12T23:15:21.562Z,7.38
2022-09-12T23:17:47.978Z,7.03
2022-09-12T23:20:14.452Z,6.55
2022-09-12T23:22:40.921Z,6.85
2022-09-12T23:25:07.781Z,6.65
2022-09-12T23:27:35.335Z,6.65
2022-09-12T23:30:02.680Z,7.68
2022-09-12T23:32:30.055Z,7.13
2022-09-12T23:34:56.573Z,7.03
2022-09-12T23:37:23.014Z,8.68
2022-09-12T23:39:49.725Z,7.05
2022-09-12T23:42:16.819Z,6.95
2022-09-12T23:44:43.335Z,8.20
2022-09-12T23:47:09.874Z,6.38
2022-09-12T23:49:36.346Z,6.20
2022-09-12T23:52:02.943Z,6.03
2022-09-12T23:54:29.381Z,6.22
2022-09-12T23:56:55.852Z,6.30
2022-09-12T23:59:22.258Z,9.30
